Aviation Digital Data Service (ADDS)

Output produced by TAFs form (1917 UTC 21 April 2018)
found at http://aviationweather.gov/adds/tafs/
 
METAR text: RJTL 211751Z 19001KT 9999 R19/0250V1600D MIFG NSC 15/14 Q1017 RMK A3005 R0550 FG ON RWY
Conditions at: RJTL (SHIMOFUSA (JMSDF, JP) observed 1751 UTC 21 April 2018
Temperature: 15.0°C (59°F)
Dewpoint: 14.0°C (57°F) [RH = 94%]
Pressure (altimeter): 30.03 inches Hg (1017.0 mb)
Winds: from the S (190 degrees) at 1 MPH (1 knots; 0.5 m/s)
Visibility: 6 or more miles (10+ km)
Ceiling: at least 12,000 feet AGL
Clouds: sky clear below 12,000 feet AGL
Weather: MIFG  (shallow fog)